createdAt,value
2023-10-10T00:01:57.117Z,102121.13
2023-10-10T00:04:23.530Z,102123.25
2023-10-10T00:06:49.963Z,102123.78
2023-10-10T00:09:17.760Z,102120.59
2023-10-10T00:11:46.040Z,102100.81
2023-10-10T00:14:15.683Z,102101.91
2023-10-10T00:16:42.210Z,102081.34
2023-10-10T00:19:13.059Z,102085.88
2023-10-10T00:21:43.455Z,102078.94
2023-10-10T00:24:09.911Z,102063.72
2023-10-10T00:26:36.405Z,102053.81
2023-10-10T00:29:03.010Z,102036.22
2023-10-10T00:31:29.789Z,102015.91
2023-10-10T00:33:56.501Z,101997.75
2023-10-10T00:36:23.917Z,101987.34
2023-10-10T00:38:51.691Z,101972.66
2023-10-10T00:41:19.799Z,101949.97
2023-10-10T00:43:52.725Z,101930.25
2023-10-10T00:46:21.973Z,101927.03
2023-10-10T00:48:51.402Z,101909.44
2023-10-10T00:51:21.862Z,101880.63
2023-10-10T00:53:53.747Z,101845.69
2023-10-10T00:56:23.117Z,101832.59
2023-10-10T00:58:52.682Z,101818.97
2023-10-10T01:01:24.705Z,101800.06
2023-10-10T01:03:51.193Z,101769.91
2023-10-10T01:06:20.790Z,101739.72
2023-10-10T01:08:55.428Z,101691.75
2023-10-10T01:11:23.702Z,101696.25
2023-10-10T01:13:59.528Z,101648.31
2023-10-10T01:16:26.082Z,101644.03
2023-10-10T01:18:59.367Z,101643.22
2023-10-10T01:21:26.944Z,101615.97
2023-10-10T01:23:53.485Z,101585.56
2023-10-10T01:26:25.137Z,101587.19
2023-10-10T01:28:54.687Z,101590.28
2023-10-10T01:31:27.329Z,101580.16
2023-10-10T01:33:53.827Z,101565.47
2023-10-10T01:36:21.064Z,101547.63
2023-10-10T01:38:58.231Z,101539.13
2023-10-10T01:41:27.441Z,101518.84
2023-10-10T01:43:56.303Z,101503.84
2023-10-10T01:46:25.189Z,101493.69
2023-10-10T01:48:51.574Z,101481.44
2023-10-10T01:51:18.101Z,101460.94
2023-10-10T01:53:44.691Z,101468.91
2023-10-10T01:56:11.493Z,101472.91
2023-10-10T01:58:38.122Z,101454.94
2023-10-10T02:01:16.921Z,101442.16
2023-10-10T02:03:46.926Z,101433.66
2023-10-10T02:06:16.627Z,101434.75
2023-10-10T02:08:50.644Z,101418.53
2023-10-10T02:11:17.177Z,101416.84
2023-10-10T02:13:43.699Z,101407.28
2023-10-10T02:16:10.157Z,101389.25
2023-10-10T02:18:36.777Z,101398.78
2023-10-10T02:21:06.325Z,101391.78
2023-10-10T02:23:33.359Z,101396.75
2023-10-10T02:26:01.039Z,101396.25
2023-10-10T02:28:27.567Z,101383.81
2023-10-10T02:30:54.461Z,101380.06
2023-10-10T02:36:01.469Z,101353.22
2023-10-10T02:38:33.086Z,101361.75
2023-10-10T02:41:08.306Z,101359.09
2023-10-10T02:43:37.630Z,101353.44
2023-10-10T02:46:04.326Z,101348.97
2023-10-10T02:48:31.000Z,101340.28
2023-10-10T02:50:59.688Z,101336.22
2023-10-10T02:53:29.677Z,101328.38
2023-10-10T02:55:56.352Z,101335.41
2023-10-10T02:58:22.928Z,101338.88
2023-10-10T03:00:53.800Z,101348.66
2023-10-10T03:03:26.342Z,101340.97
2023-10-10T03:05:54.025Z,101343.16
2023-10-10T03:08:24.471Z,101355.06
2023-10-10T03:10:54.058Z,101344.94
2023-10-10T03:13:24.648Z,101349.50
2023-10-10T03:15:57.177Z,101350.28
2023-10-10T03:18:34.323Z,101345.81
2023-10-10T03:21:00.926Z,101320.38
2023-10-10T03:23:27.670Z,101332.75
2023-10-10T03:25:55.584Z,101338.69
2023-10-10T03:28:23.115Z,101349.84
2023-10-10T03:31:07.989Z,101352.44
2023-10-10T03:33:34.829Z,101355.63
2023-10-10T03:36:01.522Z,101357.72
2023-10-10T03:38:28.225Z,101357.28
2023-10-10T03:40:54.852Z,101358.34
2023-10-10T03:43:25.457Z,101325.41
2023-10-10T03:45:59.465Z,101356.50
2023-10-10T03:48:26.100Z,101329.72
2023-10-10T03:50:52.524Z,101332.75
2023-10-10T03:53:24.571Z,101339.66
2023-10-10T03:55:55.142Z,101354.53
2023-10-10T03:58:24.036Z,101355.41
2023-10-10T04:00:55.008Z,101354.41
2023-10-10T04:03:25.353Z,101356.25
2023-10-10T04:05:54.874Z,101350.09
2023-10-10T04:08:25.390Z,101334.44
2023-10-10T04:10:56.338Z,101323.03
2023-10-10T04:13:22.997Z,101305.00
2023-10-10T04:15:51.822Z,101292.56
2023-10-10T04:18:18.964Z,101311.16
2023-10-10T04:20:45.582Z,101299.25
2023-10-10T04:23:14.366Z,101284.94
2023-10-10T04:25:41.039Z,101303.00
2023-10-10T04:28:08.659Z,101292.66
2023-10-10T04:30:35.372Z,101253.34
2023-10-10T04:33:02.007Z,101265.84
2023-10-10T04:35:30.064Z,101270.09
2023-10-10T04:38:05.478Z,101268.78
2023-10-10T04:40:33.406Z,101236.69
2023-10-10T04:43:06.720Z,101233.75
2023-10-10T04:45:34.050Z,101234.50
2023-10-10T04:48:06.657Z,101220.63
2023-10-10T04:50:33.402Z,101190.38
2023-10-10T04:53:04.285Z,101175.50
2023-10-10T04:55:32.426Z,101149.75
2023-10-10T04:58:01.545Z,101155.59
2023-10-10T05:00:28.123Z,101100.84
2023-10-10T05:02:54.830Z,101076.13
2023-10-10T05:05:23.728Z,101064.63
2023-10-10T05:07:54.631Z,101058.25
2023-10-10T05:10:23.261Z,101041.56
2023-10-10T05:12:49.901Z,101025.59
2023-10-10T05:15:16.444Z,101008.56
2023-10-10T05:17:43.327Z,100987.78
2023-10-10T05:20:13.550Z,100967.34
2023-10-10T05:22:40.085Z,100960.94
2023-10-10T05:25:07.483Z,100926.09
2023-10-10T05:27:57.299Z,100917.28
2023-10-10T05:30:25.183Z,100881.91
2023-10-10T05:33:04.144Z,100863.53
2023-10-10T05:35:38.412Z,100848.66
2023-10-10T05:38:11.024Z,100827.78
2023-10-10T05:40:38.402Z,100796.72
2023-10-10T05:43:05.968Z,100795.03
2023-10-10T05:45:32.453Z,100771.66
2023-10-10T05:47:59.182Z,100754.03
2023-10-10T05:50:25.932Z,100726.91
2023-10-10T05:52:55.608Z,100734.59
2023-10-10T05:55:24.934Z,100724.72
2023-10-10T05:57:55.933Z,100726.03
2023-10-10T06:00:27.610Z,100695.44
2023-10-10T06:02:54.110Z,100679.91
2023-10-10T06:05:22.860Z,100653.94
2023-10-10T06:07:49.332Z,100651.91
2023-10-10T06:10:24.823Z,100641.84
2023-10-10T06:12:55.414Z,100626.84
2023-10-10T06:15:24.818Z,100625.31
2023-10-10T06:17:54.451Z,100623.88
2023-10-10T06:20:28.507Z,100603.44
2023-10-10T06:22:55.185Z,100600.25
2023-10-10T06:25:23.447Z,100611.25
2023-10-10T06:27:55.430Z,100605.94
2023-10-10T06:30:27.903Z,100622.44
2023-10-10T06:32:54.586Z,100607.22
2023-10-10T06:35:23.449Z,100592.72
2023-10-10T06:38:03.884Z,100589.47
2023-10-10T06:40:39.524Z,100588.88
2023-10-10T06:43:06.059Z,100561.44
2023-10-10T06:45:36.825Z,100587.47
2023-10-10T06:48:03.552Z,100590.16
2023-10-10T06:50:30.267Z,100575.44
2023-10-10T06:52:59.942Z,100568.72
2023-10-10T06:55:26.459Z,100540.19
2023-10-10T06:57:57.073Z,100548.00
2023-10-10T07:00:27.824Z,100543.53
2023-10-10T07:02:54.974Z,100563.28
2023-10-10T07:05:25.258Z,100585.06
2023-10-10T07:07:55.595Z,100586.22
2023-10-10T07:10:25.232Z,100595.88
2023-10-10T07:12:54.614Z,100576.59
2023-10-10T07:15:25.188Z,100567.31
2023-10-10T07:17:58.496Z,100608.88
2023-10-10T07:20:25.125Z,100602.09
2023-10-10T07:22:55.909Z,100618.06
2023-10-10T07:25:25.285Z,100617.75
2023-10-10T07:27:54.750Z,100634.56
2023-10-10T07:33:01.709Z,100653.22
2023-10-10T07:35:28.233Z,100663.69
2023-10-10T07:38:04.591Z,100674.25
2023-10-10T07:40:31.243Z,100703.69
2023-10-10T07:43:04.558Z,100720.69
2023-10-10T07:45:31.952Z,100728.72
2023-10-10T07:48:02.048Z,100752.47
2023-10-10T07:50:33.542Z,100776.69
2023-10-10T07:53:00.007Z,100810.53
2023-10-10T07:55:36.703Z,100838.69
2023-10-10T07:58:03.256Z,100852.19
2023-10-10T08:00:30.960Z,100879.16
2023-10-10T08:02:58.849Z,100908.25
2023-10-10T08:05:25.536Z,100937.34
2023-10-10T08:07:55.981Z,100978.53
2023-10-10T08:10:25.199Z,101013.69
2023-10-10T08:12:54.534Z,101048.13
2023-10-10T08:15:24.747Z,101054.97
2023-10-10T08:17:53.821Z,101108.81
2023-10-10T08:20:25.688Z,101152.63
2023-10-10T08:23:04.052Z,101219.44
2023-10-10T08:25:30.708Z,101290.66
2023-10-10T08:27:57.759Z,101320.34
2023-10-10T08:30:24.440Z,101372.13
2023-10-10T08:32:53.584Z,101432.78
2023-10-10T08:35:23.944Z,101473.41
2023-10-10T08:37:53.191Z,101549.88
2023-10-10T08:40:20.456Z,101714.94
2023-10-10T08:42:53.152Z,101790.31
2023-10-10T08:45:22.443Z,101848.28
2023-10-10T08:48:17.078Z,101929.13
2023-10-10T08:50:45.393Z,102000.00
2023-10-10T08:53:19.083Z,102073.00
2023-10-10T08:55:45.812Z,102115.47
2023-10-10T08:58:14.216Z,102152.88
2023-10-10T09:00:40.784Z,102180.38
2023-10-10T09:03:07.623Z,102229.69
2023-10-10T09:05:34.297Z,102290.44
2023-10-10T09:08:00.977Z,102340.91
2023-10-10T09:10:31.030Z,102386.59
2023-10-10T09:12:57.599Z,102411.72
2023-10-10T09:15:25.172Z,102436.53
2023-10-10T09:18:19.976Z,102450.91
2023-10-10T09:20:46.557Z,102490.03
2023-10-10T09:23:31.678Z,102518.59
2023-10-10T09:26:14.100Z,102510.31
2023-10-10T09:28:52.406Z,102508.06
2023-10-10T09:31:20.279Z,102491.63
2023-10-10T09:33:53.626Z,102472.28
2023-10-10T09:36:23.593Z,102479.81
2023-10-10T09:38:56.473Z,102490.88
2023-10-10T09:41:29.749Z,102495.66
2023-10-10T09:44:22.179Z,102504.34
2023-10-10T09:47:09.994Z,102501.97
2023-10-10T09:49:40.986Z,102478.56
2023-10-10T09:52:33.962Z,102403.72
2023-10-10T09:55:08.922Z,102309.16
2023-10-10T09:57:48.658Z,102054.56
2023-10-10T10:00:30.052Z,101612.16
2023-10-10T10:02:58.190Z,101523.22
2023-10-10T10:05:29.562Z,101620.13
2023-10-10T10:08:24.083Z,101689.88
2023-10-10T10:11:07.477Z,101747.72
2023-10-10T10:14:14.792Z,101790.75
2023-10-10T10:16:54.048Z,101801.09
2023-10-10T10:19:26.475Z,101864.47
2023-10-10T10:22:00.396Z,101876.50
2023-10-10T10:24:34.309Z,101847.69
2023-10-10T10:27:23.851Z,101809.56
2023-10-10T10:30:07.381Z,101770.84
2023-10-10T10:32:36.109Z,101744.84
2023-10-10T10:35:03.617Z,101750.06
2023-10-10T10:37:30.047Z,101731.09
2023-10-10T10:40:04.804Z,101783.31
2023-10-10T10:42:40.728Z,101794.47
2023-10-10T10:45:28.124Z,101821.31
2023-10-10T10:47:59.210Z,101825.53
2023-10-10T10:50:30.232Z,101835.28
2023-10-10T10:53:19.904Z,101830.13
2023-10-10T10:55:47.846Z,101843.94
2023-10-10T10:58:15.629Z,101850.97
2023-10-10T11:00:44.305Z,101870.28
2023-10-10T11:03:10.977Z,101864.97
2023-10-10T11:05:39.396Z,101875.66
2023-10-10T11:08:09.028Z,101874.84
2023-10-10T11:10:37.413Z,101854.97
2023-10-10T11:13:15.586Z,101856.63
2023-10-10T11:15:49.274Z,101829.66
2023-10-10T11:18:27.436Z,101839.69
2023-10-10T11:21:03.177Z,101842.50
2023-10-10T11:23:29.896Z,101826.75
2023-10-10T11:25:56.561Z,101825.38
2023-10-10T11:28:32.059Z,101847.00
2023-10-10T11:31:28.280Z,101846.13
2023-10-10T11:33:55.975Z,101836.28
2023-10-10T11:36:32.393Z,101828.25
2023-10-10T11:38:59.138Z,101825.16
2023-10-10T11:41:28.609Z,101825.16
2023-10-10T11:44:04.697Z,101819.81
2023-10-10T11:46:34.520Z,101846.41
2023-10-10T11:49:03.466Z,101844.09
2023-10-10T11:51:42.572Z,101836.28
2023-10-10T11:54:09.553Z,101832.94
2023-10-10T11:56:37.668Z,101824.47
2023-10-10T11:59:12.569Z,101843.38
2023-10-10T12:01:43.319Z,101827.00
2023-10-10T12:04:09.895Z,101838.78
2023-10-10T12:06:37.637Z,101834.59
2023-10-10T12:09:06.723Z,101832.78
2023-10-10T12:11:33.245Z,101830.38
2023-10-10T12:14:02.832Z,101824.59
2023-10-10T12:16:31.650Z,101818.72
2023-10-10T12:19:01.012Z,101795.22
2023-10-10T12:21:27.674Z,101818.28
2023-10-10T12:24:02.553Z,101798.44
2023-10-10T12:26:29.800Z,101787.06
2023-10-10T12:28:56.230Z,101803.50
2023-10-10T12:31:23.792Z,101810.81
2023-10-10T12:33:50.728Z,101796.31
2023-10-10T12:36:17.924Z,101789.13
2023-10-10T12:38:45.173Z,101795.47
2023-10-10T12:41:11.986Z,101799.06
2023-10-10T12:43:38.870Z,101788.50
2023-10-10T12:46:06.018Z,101787.88
2023-10-10T12:48:32.621Z,101798.56
2023-10-10T12:50:59.199Z,101795.94
2023-10-10T12:53:31.054Z,101775.25
2023-10-10T12:55:57.623Z,101763.19
2023-10-10T12:58:26.905Z,101789.66
2023-10-10T13:01:11.918Z,101791.28
2023-10-10T13:03:38.583Z,101786.16
2023-10-10T13:06:07.867Z,101774.16
2023-10-10T13:08:37.743Z,101765.66
2023-10-10T13:11:04.602Z,101744.31
2023-10-10T13:13:31.033Z,101747.16
2023-10-10T13:16:00.135Z,101758.19
2023-10-10T13:18:26.999Z,101733.19
2023-10-10T13:20:56.112Z,101739.34
2023-10-10T13:23:32.818Z,101734.75
2023-10-10T13:26:02.502Z,101725.00
2023-10-10T13:28:31.324Z,101710.44
2023-10-10T13:31:00.960Z,101708.56
2023-10-10T13:33:27.572Z,101736.19
2023-10-10T13:35:57.123Z,101727.25
2023-10-10T13:38:28.898Z,101709.75
2023-10-10T13:40:55.492Z,101708.31
2023-10-10T13:43:29.001Z,101711.47
2023-10-10T13:45:58.174Z,101708.00
2023-10-10T13:48:25.735Z,101717.81
2023-10-10T13:50:52.591Z,101726.84
2023-10-10T13:53:19.455Z,101737.19
2023-10-10T13:55:51.617Z,101718.03
2023-10-10T13:58:18.235Z,101716.06
2023-10-10T14:00:51.254Z,101720.72
2023-10-10T14:03:18.027Z,101717.13
2023-10-10T14:05:44.493Z,101723.31
2023-10-10T14:08:13.964Z,101713.91
2023-10-10T14:10:41.490Z,101694.13
2023-10-10T14:13:20.183Z,101689.41
2023-10-10T14:15:52.073Z,101695.50
2023-10-10T14:18:20.519Z,101681.41
2023-10-10T14:20:47.391Z,101673.53
2023-10-10T14:23:14.597Z,101659.84
2023-10-10T14:25:40.978Z,101653.13
2023-10-10T14:28:07.661Z,101653.69
2023-10-10T14:30:41.110Z,101644.19
2023-10-10T14:33:07.749Z,101628.09
2023-10-10T14:35:36.845Z,101625.16
2023-10-10T14:38:04.565Z,101633.09
2023-10-10T14:40:31.057Z,101615.31
2023-10-10T14:42:57.561Z,101618.41
2023-10-10T14:45:32.855Z,101617.50
2023-10-10T14:48:19.566Z,101604.88
2023-10-10T14:50:50.084Z,101585.72
2023-10-10T14:53:16.696Z,101587.25
2023-10-10T14:55:43.234Z,101556.22
2023-10-10T14:58:09.729Z,101553.69
2023-10-10T15:00:36.905Z,101515.34
2023-10-10T15:03:03.688Z,101533.81
2023-10-10T15:05:30.405Z,101522.44
2023-10-10T15:07:56.979Z,101542.78
2023-10-10T15:10:26.002Z,101522.81
2023-10-10T15:13:01.647Z,101497.34
2023-10-10T15:15:46.528Z,101485.94
2023-10-10T15:18:20.069Z,101510.75
2023-10-10T15:20:48.680Z,101502.50
2023-10-10T15:23:21.166Z,101494.78
2023-10-10T15:25:57.322Z,101496.53
2023-10-10T15:28:28.287Z,101461.53
2023-10-10T15:30:57.417Z,101448.06
2023-10-10T15:33:31.282Z,101423.81
2023-10-10T15:36:08.009Z,101384.91
2023-10-10T15:38:40.698Z,101367.09
2023-10-10T15:41:31.607Z,101329.28
2023-10-10T15:43:59.282Z,101244.66
2023-10-10T15:46:32.646Z,101193.16
2023-10-10T15:49:00.188Z,100957.00
2023-10-10T15:51:27.226Z,100908.19
2023-10-10T15:54:01.476Z,100893.94
2023-10-10T15:56:27.915Z,100855.19
2023-10-10T15:59:00.206Z,100852.22
2023-10-10T16:01:29.128Z,100891.78
2023-10-10T16:04:05.479Z,100959.09
2023-10-10T16:06:36.682Z,101142.41
2023-10-10T16:09:05.231Z,101261.06
2023-10-10T16:11:57.581Z,101449.72
2023-10-10T16:14:22.972Z,101570.00
2023-10-10T16:16:52.824Z,101651.09
2023-10-10T16:19:23.731Z,101742.25
2023-10-10T16:21:51.343Z,101874.41
2023-10-10T16:24:18.192Z,101908.59
2023-10-10T16:26:45.800Z,101948.47
2023-10-10T16:29:12.945Z,101974.59
2023-10-10T16:31:46.965Z,102035.28
2023-10-10T16:34:14.237Z,102032.91
2023-10-10T16:36:44.922Z,102074.81
2023-10-10T16:39:13.995Z,102077.69
2023-10-10T16:41:41.339Z,102095.91
2023-10-10T16:44:07.911Z,102100.66
2023-10-10T16:46:38.437Z,102108.19
2023-10-10T16:49:07.412Z,102115.03
2023-10-10T16:51:34.192Z,102113.19
2023-10-10T16:54:02.094Z,102129.69
2023-10-10T16:56:28.742Z,102114.00
2023-10-10T16:59:04.402Z,102136.66
2023-10-10T17:01:32.215Z,102103.31
2023-10-10T17:03:59.044Z,102128.56
2023-10-10T17:06:28.939Z,102105.47
2023-10-10T17:08:58.716Z,102133.97
2023-10-10T17:11:29.321Z,102148.34
2023-10-10T17:13:59.039Z,102136.59
2023-10-10T17:16:34.614Z,102157.50
2023-10-10T17:21:32.000Z,102168.41
2023-10-10T17:24:02.144Z,102138.75
2023-10-10T17:26:28.762Z,102166.00
2023-10-10T17:28:59.066Z,102178.72
2023-10-10T17:31:28.675Z,102179.28
2023-10-10T17:34:04.244Z,102161.69
2023-10-10T17:36:30.721Z,102160.06
2023-10-10T17:38:57.323Z,102177.56
2023-10-10T17:41:53.725Z,102168.25
2023-10-10T17:44:20.478Z,102149.09
2023-10-10T17:46:47.381Z,102175.09
2023-10-10T17:49:13.897Z,102180.13
2023-10-10T17:51:42.744Z,102185.47
2023-10-10T17:54:14.493Z,102161.19
2023-10-10T17:56:41.232Z,102152.59
2023-10-10T17:59:07.708Z,102181.38
2023-10-10T18:01:35.392Z,102162.13
2023-10-10T18:04:05.188Z,102161.69
2023-10-10T18:06:40.247Z,102164.19
2023-10-10T18:09:06.802Z,102132.44
2023-10-10T18:11:33.574Z,102143.84
2023-10-10T18:14:02.747Z,102131.81
2023-10-10T18:16:34.601Z,102115.25
2023-10-10T18:19:01.754Z,102088.22
2023-10-10T18:21:28.329Z,102092.97
2023-10-10T18:24:00.176Z,102081.50
2023-10-10T18:26:32.053Z,102077.78
2023-10-10T18:28:58.600Z,102076.69
2023-10-10T18:31:27.663Z,102064.63
2023-10-10T18:34:00.923Z,102052.00
2023-10-10T18:36:30.629Z,102014.44
2023-10-10T18:38:59.836Z,102032.31
2023-10-10T18:41:30.251Z,102019.72
2023-10-10T18:43:59.821Z,102011.53
2023-10-10T18:46:31.822Z,101986.41
2023-10-10T18:48:59.238Z,101957.78
2023-10-10T18:51:33.258Z,101923.25
2023-10-10T18:54:05.908Z,101905.28
2023-10-10T18:56:35.497Z,101882.97
2023-10-10T18:59:04.829Z,101862.94
2023-10-10T19:01:31.351Z,101829.78
2023-10-10T19:03:57.786Z,101805.94
2023-10-10T19:06:29.947Z,101805.59
2023-10-10T19:09:03.399Z,101748.53
2023-10-10T19:11:29.912Z,101703.31
2023-10-10T19:13:59.250Z,101677.41
2023-10-10T19:16:27.853Z,101687.03
2023-10-10T19:19:00.401Z,101691.84
2023-10-10T19:21:33.132Z,101667.28
2023-10-10T19:23:59.654Z,101687.03
2023-10-10T19:26:28.409Z,101685.31
2023-10-10T19:28:54.977Z,101659.13
2023-10-10T19:31:23.025Z,101679.88
2023-10-10T19:33:49.773Z,101630.72
2023-10-10T19:36:16.559Z,101622.84
2023-10-10T19:38:47.999Z,101649.72
2023-10-10T19:41:15.763Z,101627.25
2023-10-10T19:43:42.415Z,101629.59
2023-10-10T19:46:09.019Z,101640.88
2023-10-10T19:48:35.533Z,101652.31
2023-10-10T19:51:04.911Z,101657.44
2023-10-10T19:53:31.397Z,101635.22
2023-10-10T19:56:00.927Z,101641.75
2023-10-10T19:58:36.004Z,101638.22
2023-10-10T20:01:06.294Z,101616.69
2023-10-10T20:03:32.886Z,101617.94
2023-10-10T20:05:59.464Z,101597.88
2023-10-10T20:08:30.643Z,101581.16
2023-10-10T20:11:02.438Z,101555.38
2023-10-10T20:13:28.959Z,101537.00
2023-10-10T20:15:55.398Z,101499.25
2023-10-10T20:18:21.933Z,101461.31
2023-10-10T20:20:48.511Z,101471.78
2023-10-10T20:23:15.334Z,101425.63
2023-10-10T20:25:42.454Z,101412.25
2023-10-10T20:28:10.568Z,101356.56
2023-10-10T20:30:42.498Z,101343.63
2023-10-10T20:33:08.949Z,101344.25
2023-10-10T20:35:35.574Z,101340.56
2023-10-10T20:38:07.353Z,101334.72
2023-10-10T20:40:37.844Z,101353.88
2023-10-10T20:43:06.618Z,101335.72
2023-10-10T20:45:35.962Z,101301.97
2023-10-10T20:48:07.810Z,101298.75
2023-10-10T20:50:36.610Z,101296.63
2023-10-10T20:53:03.094Z,101275.25
2023-10-10T20:55:30.260Z,101255.06
2023-10-10T20:58:00.284Z,101257.03
2023-10-10T21:00:29.933Z,101269.91
2023-10-10T21:03:03.438Z,101272.22
2023-10-10T21:05:30.049Z,101244.00
2023-10-10T21:10:45.759Z,101241.59
2023-10-10T21:13:24.844Z,101248.91
2023-10-10T21:15:51.631Z,101274.13
2023-10-10T21:18:18.284Z,101230.91
2023-10-10T21:21:02.849Z,101249.84
2023-10-10T21:23:34.763Z,101244.38
2023-10-10T21:26:03.953Z,101257.28
2023-10-10T21:28:30.535Z,101257.56
2023-10-10T21:30:59.775Z,101238.63
2023-10-10T21:33:28.892Z,101248.44
2023-10-10T21:35:55.623Z,101231.50
2023-10-10T21:38:22.114Z,101243.00
2023-10-10T21:40:50.800Z,101232.69
2023-10-10T21:43:20.007Z,101215.16
2023-10-10T21:45:49.633Z,101231.84
2023-10-10T21:48:16.199Z,101246.00
2023-10-10T21:50:51.697Z,101234.28
2023-10-10T21:53:18.171Z,101224.59
2023-10-10T21:55:50.259Z,101225.38
2023-10-10T21:58:19.053Z,101253.63
2023-10-10T22:00:45.553Z,101232.53
2023-10-10T22:03:16.502Z,101240.34
2023-10-10T22:05:47.054Z,101257.63
2023-10-10T22:08:25.620Z,101287.56
2023-10-10T22:10:52.605Z,101262.63
2023-10-10T22:13:21.707Z,101272.03
2023-10-10T22:15:48.216Z,101289.28
2023-10-10T22:18:17.830Z,101272.25
2023-10-10T22:20:44.396Z,101321.50
2023-10-10T22:23:10.873Z,101328.81
2023-10-10T22:25:37.304Z,101336.25
2023-10-10T22:28:07.085Z,101346.75
2023-10-10T22:30:36.378Z,101362.22
2023-10-10T22:33:06.991Z,101382.75
2023-10-10T22:35:36.911Z,101379.56
2023-10-10T22:38:10.822Z,101368.81
2023-10-10T22:40:54.339Z,101385.50
2023-10-10T22:43:24.781Z,101389.59
2023-10-10T22:45:51.367Z,101421.50
2023-10-10T22:48:18.032Z,101447.88
2023-10-10T22:50:44.543Z,101471.66
2023-10-10T22:53:11.048Z,101483.81
2023-10-10T22:55:41.498Z,101537.91
2023-10-10T22:58:10.594Z,101532.25
2023-10-10T23:00:37.811Z,101553.13
2023-10-10T23:03:15.245Z,101562.59
2023-10-10T23:05:44.812Z,101602.59
2023-10-10T23:08:14.975Z,101592.09
2023-10-10T23:10:42.857Z,101596.00
2023-10-10T23:13:09.452Z,101608.84
2023-10-10T23:15:44.269Z,101613.97
2023-10-10T23:18:11.103Z,101627.97
2023-10-10T23:20:38.482Z,101633.09
2023-10-10T23:23:07.345Z,101648.00
2023-10-10T23:25:34.051Z,101657.44
2023-10-10T23:28:00.741Z,101699.06
2023-10-10T23:30:32.799Z,101710.81
2023-10-10T23:32:59.985Z,101689.06
2023-10-10T23:35:29.700Z,101707.44
2023-10-10T23:37:59.111Z,101707.75
2023-10-10T23:40:25.713Z,101729.69
2023-10-10T23:42:53.728Z,101746.03
2023-10-10T23:45:22.333Z,101772.75
2023-10-10T23:47:53.026Z,101774.13
2023-10-10T23:50:20.076Z,101807.53
2023-10-10T23:52:46.450Z,101800.72
2023-10-10T23:55:15.545Z,101822.53
2023-10-10T23:57:42.008Z,101820.72
